sensor_id;sensor_type;location;lat;lon;timestamp;P1;durP1;ratioP1;P2;durP2;ratioP2
6438;SDS011;3252;52.540;13.290;2024-01-15T00:01:33;6.00;;;4.50;;
6438;SDS011;3252;52.540;13.290;2024-01-15T00:03:34;6.83;;;4.70;;
6438;SDS011;3252;52.540;13.290;2024-01-15T00:05:36;6.47;;;4.60;;
6438;SDS011;3252;52.540;13.290;2024-01-15T00:07:38;7.00;;;4.73;;
6438;SDS011;3252;52.540;13.290;2024-01-15T00:09:40;5.43;;;4.40;;
6438;SDS011;3252;52.540;13.290;2024-01-15T00:11:44;5.93;;;4.40;;
6438;SDS011;3252;52.540;13.290;2024-01-15T00:13:46;6.50;;;4.60;;
6438;SDS011;3252;52.540;13.290;2024-01-15T00:15:48;7.10;;;4.70;;
6438;SDS011;3252;52.540;13.290;2024-01-15T00:17:50;6.83;;;4.63;;
6438;SDS011;3252;52.540;13.290;2024-01-15T00:19:52;6.47;;;4.33;;
6438;SDS011;3252;52.540;13.290;2024-01-15T00:21:54;6.07;;;4.27;;
6438;SDS011;3252;52.540;13.290;2024-01-15T00:23:57;5.73;;;4.10;;
6438;SDS011;3252;52.540;13.290;2024-01-15T00:25:59;5.87;;;3.93;;
6438;SDS011;3252;52.540;13.290;2024-01-15T00:28:03;6.33;;;4.00;;
6438;SDS011;3252;52.540;13.290;2024-01-15T00:30:06;4.97;;;4.00;;
6438;SDS011;3252;52.540;13.290;2024-01-15T00:32:09;5.47;;;4.30;;
6438;SDS011;3252;52.540;13.290;2024-01-15T00:34:11;5.03;;;3.73;;
6438;SDS011;3252;52.540;13.290;2024-01-15T00:36:13;5.13;;;3.77;;
6438;SDS011;3252;52.540;13.290;2024-01-15T00:38:17;5.90;;;4.20;;
6438;SDS011;3252;52.540;13.290;2024-01-15T00:40:19;7.03;;;4.70;;
6438;SDS011;3252;52.540;13.290;2024-01-15T00:42:20;4.97;;;3.77;;
6438;SDS011;3252;52.540;13.290;2024-01-15T00:44:24;5.47;;;4.13;;
6438;SDS011;3252;52.540;13.290;2024-01-15T00:46:26;6.47;;;4.20;;
6438;SDS011;3252;52.540;13.290;2024-01-15T00:48:28;5.80;;;3.90;;
6438;SDS011;3252;52.540;13.290;2024-01-15T00:50:30;5.33;;;4.07;;
6438;SDS011;3252;52.540;13.290;2024-01-15T00:52:32;6.47;;;3.93;;
6438;SDS011;3252;52.540;13.290;2024-01-15T00:54:34;6.00;;;4.03;;
6438;SDS011;3252;52.540;13.290;2024-01-15T00:56:36;6.43;;;3.77;;
6438;SDS011;3252;52.540;13.290;2024-01-15T00:58:38;6.00;;;4.20;;
6438;SDS011;3252;52.540;13.290;2024-01-15T01:00:42;4.40;;;3.63;;
6438;SDS011;3252;52.540;13.290;2024-01-15T01:02:44;5.93;;;4.00;;
6438;SDS011;3252;52.540;13.290;2024-01-15T01:04:46;4.63;;;3.63;;
6438;SDS011;3252;52.540;13.290;2024-01-15T01:06:47;5.13;;;3.80;;
6438;SDS011;3252;52.540;13.290;2024-01-15T01:08:49;6.07;;;4.23;;
6438;SDS011;3252;52.540;13.290;2024-01-15T01:10:50;5.13;;;3.70;;
6438;SDS011;3252;52.540;13.290;2024-01-15T01:12:52;5.53;;;4.07;;
6438;SDS011;3252;52.540;13.290;2024-01-15T01:14:54;5.17;;;4.10;;
6438;SDS011;3252;52.540;13.290;2024-01-15T01:16:58;4.77;;;3.60;;
6438;SDS011;3252;52.540;13.290;2024-01-15T01:19:00;6.07;;;3.97;;
6438;SDS011;3252;52.540;13.290;2024-01-15T01:21:01;4.70;;;3.60;;
6438;SDS011;3252;52.540;13.290;2024-01-15T01:23:03;4.90;;;3.70;;
6438;SDS011;3252;52.540;13.290;2024-01-15T01:25:05;4.40;;;3.47;;
6438;SDS011;3252;52.540;13.290;2024-01-15T01:27:08;5.67;;;3.80;;
6438;SDS011;3252;52.540;13.290;2024-01-15T01:29:10;5.50;;;3.70;;
6438;SDS011;3252;52.540;13.290;2024-01-15T01:31:12;5.50;;;3.97;;
6438;SDS011;3252;52.540;13.290;2024-01-15T01:33:15;5.83;;;3.70;;
6438;SDS011;3252;52.540;13.290;2024-01-15T01:35:17;4.57;;;3.50;;
6438;SDS011;3252;52.540;13.290;2024-01-15T01:37:18;4.80;;;3.77;;
6438;SDS011;3252;52.540;13.290;2024-01-15T01:39:20;5.13;;;3.57;;
6438;SDS011;3252;52.540;13.290;2024-01-15T01:41:22;5.37;;;3.80;;
6438;SDS011;3252;52.540;13.290;2024-01-15T01:43:25;4.90;;;3.63;;
6438;SDS011;3252;52.540;13.290;2024-01-15T01:45:27;5.07;;;3.37;;
6438;SDS011;3252;52.540;13.290;2024-01-15T01:47:28;4.90;;;3.60;;
6438;SDS011;3252;52.540;13.290;2024-01-15T01:49:32;4.70;;;3.63;;
6438;SDS011;3252;52.540;13.290;2024-01-15T01:51:35;4.97;;;3.80;;
6438;SDS011;3252;52.540;13.290;2024-01-15T01:53:39;5.17;;;3.47;;
6438;SDS011;3252;52.540;13.290;2024-01-15T01:55:42;4.67;;;3.50;;
6438;SDS011;3252;52.540;13.290;2024-01-15T01:57:44;5.03;;;3.80;;
6438;SDS011;3252;52.540;13.290;2024-01-15T01:59:46;4.87;;;3.80;;
6438;SDS011;3252;52.540;13.290;2024-01-15T02:01:49;4.73;;;3.37;;
6438;SDS011;3252;52.540;13.290;2024-01-15T02:03:52;4.57;;;3.50;;
6438;SDS011;3252;52.540;13.290;2024-01-15T02:05:58;3.80;;;3.10;;
6438;SDS011;3252;52.540;13.290;2024-01-15T02:08:01;4.37;;;3.30;;
6438;SDS011;3252;52.540;13.290;2024-01-15T02:10:03;4.37;;;3.23;;
6438;SDS011;3252;52.540;13.290;2024-01-15T02:12:06;4.23;;;3.30;;
6438;SDS011;3252;52.540;13.290;2024-01-15T02:14:09;4.40;;;3.43;;
6438;SDS011;3252;52.540;13.290;2024-01-15T02:16:11;4.07;;;3.23;;
6438;SDS011;3252;52.540;13.290;2024-01-15T02:18:13;4.37;;;3.47;;
6438;SDS011;3252;52.540;13.290;2024-01-15T02:20:15;4.63;;;3.17;;
6438;SDS011;3252;52.540;13.290;2024-01-15T02:22:17;4.57;;;3.27;;
6438;SDS011;3252;52.540;13.290;2024-01-15T02:24:21;4.97;;;3.20;;
6438;SDS011;3252;52.540;13.290;2024-01-15T02:26:23;4.23;;;3.30;;
6438;SDS011;3252;52.540;13.290;2024-01-15T02:28:25;3.77;;;3.27;;
6438;SDS011;3252;52.540;13.290;2024-01-15T02:30:28;5.87;;;3.33;;
6438;SDS011;3252;52.540;13.290;2024-01-15T02:32:31;3.77;;;3.03;;
6438;SDS011;3252;52.540;13.290;2024-01-15T02:34:33;3.67;;;3.20;;
6438;SDS011;3252;52.540;13.290;2024-01-15T02:36:35;4.60;;;3.20;;
6438;SDS011;3252;52.540;13.290;2024-01-15T02:38:37;3.57;;;3.13;;
6438;SDS011;3252;52.540;13.290;2024-01-15T02:40:41;4.03;;;3.07;;
6438;SDS011;3252;52.540;13.290;2024-01-15T02:42:43;3.87;;;3.17;;
6438;SDS011;3252;52.540;13.290;2024-01-15T02:44:45;5.27;;;3.10;;
6438;SDS011;3252;52.540;13.290;2024-01-15T02:46:48;5.87;;;3.73;;
6438;SDS011;3252;52.540;13.290;2024-01-15T02:48:51;4.30;;;3.33;;
6438;SDS011;3252;52.540;13.290;2024-01-15T02:50:53;4.80;;;3.20;;
6438;SDS011;3252;52.540;13.290;2024-01-15T02:52:54;3.57;;;2.87;;
6438;SDS011;3252;52.540;13.290;2024-01-15T02:54:56;4.17;;;3.07;;
6438;SDS011;3252;52.540;13.290;2024-01-15T02:56:59;3.70;;;2.93;;
6438;SDS011;3252;52.540;13.290;2024-01-15T02:59:01;4.60;;;3.20;;
6438;SDS011;3252;52.540;13.290;2024-01-15T03:01:04;4.37;;;3.47;;
6438;SDS011;3252;52.540;13.290;2024-01-15T03:03:06;4.20;;;2.93;;
6438;SDS011;3252;52.540;13.290;2024-01-15T03:05:08;3.93;;;3.00;;
6438;SDS011;3252;52.540;13.290;2024-01-15T03:07:10;3.77;;;2.87;;
6438;SDS011;3252;52.540;13.290;2024-01-15T03:09:12;3.63;;;2.90;;
6438;SDS011;3252;52.540;13.290;2024-01-15T03:11:14;4.13;;;3.07;;
6438;SDS011;3252;52.540;13.290;2024-01-15T03:13:18;3.50;;;2.90;;
6438;SDS011;3252;52.540;13.290;2024-01-15T03:15:20;3.93;;;2.90;;
6438;SDS011;3252;52.540;13.290;2024-01-15T03:17:22;4.33;;;3.20;;
6438;SDS011;3252;52.540;13.290;2024-01-15T03:19:24;4.20;;;3.10;;
6438;SDS011;3252;52.540;13.290;2024-01-15T03:21:26;4.07;;;3.07;;
6438;SDS011;3252;52.540;13.290;2024-01-15T03:23:28;3.83;;;2.93;;
6438;SDS011;3252;52.540;13.290;2024-01-15T03:25:31;3.70;;;2.60;;
6438;SDS011;3252;52.540;13.290;2024-01-15T03:27:33;3.90;;;3.00;;
6438;SDS011;3252;52.540;13.290;2024-01-15T03:29:36;4.03;;;3.00;;
6438;SDS011;3252;52.540;13.290;2024-01-15T03:31:38;3.70;;;2.73;;
6438;SDS011;3252;52.540;13.290;2024-01-15T03:33:39;3.77;;;3.00;;
6438;SDS011;3252;52.540;13.290;2024-01-15T03:35:41;3.87;;;3.00;;
6438;SDS011;3252;52.540;13.290;2024-01-15T03:37:42;4.03;;;3.10;;
6438;SDS011;3252;52.540;13.290;2024-01-15T03:39:45;3.83;;;2.80;;
6438;SDS011;3252;52.540;13.290;2024-01-15T03:41:46;4.13;;;2.83;;
6438;SDS011;3252;52.540;13.290;2024-01-15T03:43:48;3.20;;;2.80;;
6438;SDS011;3252;52.540;13.290;2024-01-15T03:45:51;3.23;;;2.40;;
6438;SDS011;3252;52.540;13.290;2024-01-15T03:47:53;3.77;;;2.70;;
6438;SDS011;3252;52.540;13.290;2024-01-15T03:49:55;3.83;;;2.80;;
6438;SDS011;3252;52.540;13.290;2024-01-15T03:51:57;3.03;;;2.50;;
6438;SDS011;3252;52.540;13.290;2024-01-15T03:53:59;2.77;;;2.47;;
6438;SDS011;3252;52.540;13.290;2024-01-15T03:56:01;2.80;;;2.33;;
6438;SDS011;3252;52.540;13.290;2024-01-15T03:58:04;3.07;;;2.53;;
6438;SDS011;3252;52.540;13.290;2024-01-15T04:00:06;2.90;;;2.43;;
6438;SDS011;3252;52.540;13.290;2024-01-15T04:02:09;3.23;;;2.40;;
6438;SDS011;3252;52.540;13.290;2024-01-15T04:04:11;3.17;;;2.20;;
6438;SDS011;3252;52.540;13.290;2024-01-15T04:06:13;2.77;;;2.43;;
6438;SDS011;3252;52.540;13.290;2024-01-15T04:08:15;2.80;;;2.40;;
6438;SDS011;3252;52.540;13.290;2024-01-15T04:10:17;2.57;;;2.27;;
6438;SDS011;3252;52.540;13.290;2024-01-15T04:12:19;2.83;;;2.30;;
6438;SDS011;3252;52.540;13.290;2024-01-15T04:14:22;3.30;;;2.40;;
6438;SDS011;3252;52.540;13.290;2024-01-15T04:16:23;3.33;;;2.30;;
6438;SDS011;3252;52.540;13.290;2024-01-15T04:18:26;2.87;;;2.37;;
6438;SDS011;3252;52.540;13.290;2024-01-15T04:20:28;3.27;;;2.20;;
6438;SDS011;3252;52.540;13.290;2024-01-15T04:22:30;2.83;;;2.10;;
6438;SDS011;3252;52.540;13.290;2024-01-15T04:24:32;2.87;;;2.23;;
6438;SDS011;3252;52.540;13.290;2024-01-15T04:26:34;3.30;;;2.37;;
6438;SDS011;3252;52.540;13.290;2024-01-15T04:28:36;2.40;;;2.07;;
6438;SDS011;3252;52.540;13.290;2024-01-15T04:30:38;2.50;;;2.13;;
6438;SDS011;3252;52.540;13.290;2024-01-15T04:32:40;2.53;;;2.10;;
6438;SDS011;3252;52.540;13.290;2024-01-15T04:34:43;2.57;;;2.07;;
6438;SDS011;3252;52.540;13.290;2024-01-15T04:36:45;2.50;;;2.10;;
6438;SDS011;3252;52.540;13.290;2024-01-15T04:38:48;2.80;;;2.10;;
6438;SDS011;3252;52.540;13.290;2024-01-15T04:40:50;2.97;;;2.40;;
6438;SDS011;3252;52.540;13.290;2024-01-15T04:42:52;2.67;;;2.08;;
6438;SDS011;3252;52.540;13.290;2024-01-15T04:44:54;2.90;;;2.30;;
6438;SDS011;3252;52.540;13.290;2024-01-15T04:46:56;2.40;;;2.05;;
6438;SDS011;3252;52.540;13.290;2024-01-15T04:48:58;2.83;;;2.10;;
6438;SDS011;3252;52.540;13.290;2024-01-15T04:51:01;2.73;;;2.00;;
6438;SDS011;3252;52.540;13.290;2024-01-15T04:53:05;3.05;;;2.15;;
6438;SDS011;3252;52.540;13.290;2024-01-15T04:55:07;2.80;;;1.93;;
6438;SDS011;3252;52.540;13.290;2024-01-15T04:57:09;2.80;;;2.30;;
6438;SDS011;3252;52.540;13.290;2024-01-15T04:59:11;2.57;;;2.07;;
6438;SDS011;3252;52.540;13.290;2024-01-15T05:01:15;2.43;;;2.03;;
6438;SDS011;3252;52.540;13.290;2024-01-15T05:03:17;3.43;;;2.27;;
6438;SDS011;3252;52.540;13.290;2024-01-15T05:05:19;2.10;;;1.90;;
6438;SDS011;3252;52.540;13.290;2024-01-15T05:07:22;2.53;;;2.00;;
6438;SDS011;3252;52.540;13.290;2024-01-15T05:09:24;1.98;;;1.77;;
6438;SDS011;3252;52.540;13.290;2024-01-15T05:11:26;2.47;;;2.03;;
6438;SDS011;3252;52.540;13.290;2024-01-15T05:13:27;2.57;;;2.13;;
6438;SDS011;3252;52.540;13.290;2024-01-15T05:15:29;2.90;;;2.33;;
6438;SDS011;3252;52.540;13.290;2024-01-15T05:17:31;1.90;;;1.70;;
6438;SDS011;3252;52.540;13.290;2024-01-15T05:19:33;2.37;;;2.17;;
6438;SDS011;3252;52.540;13.290;2024-01-15T05:21:35;2.45;;;2.00;;
6438;SDS011;3252;52.540;13.290;2024-01-15T05:23:39;2.25;;;1.70;;
6438;SDS011;3252;52.540;13.290;2024-01-15T05:25:41;2.13;;;1.92;;
6438;SDS011;3252;52.540;13.290;2024-01-15T05:27:43;3.10;;;2.10;;
6438;SDS011;3252;52.540;13.290;2024-01-15T05:29:45;2.28;;;1.90;;
6438;SDS011;3252;52.540;13.290;2024-01-15T05:31:47;2.27;;;1.90;;
6438;SDS011;3252;52.540;13.290;2024-01-15T05:33:50;2.63;;;1.90;;
6438;SDS011;3252;52.540;13.290;2024-01-15T05:35:52;1.98;;;1.65;;
6438;SDS011;3252;52.540;13.290;2024-01-15T05:37:55;2.75;;;1.70;;
6438;SDS011;3252;52.540;13.290;2024-01-15T05:39:58;2.58;;;1.98;;
6438;SDS011;3252;52.540;13.290;2024-01-15T05:42:00;2.17;;;1.75;;
6438;SDS011;3252;52.540;13.290;2024-01-15T05:44:03;1.88;;;1.70;;
6438;SDS011;3252;52.540;13.290;2024-01-15T05:46:05;2.03;;;1.83;;
6438;SDS011;3252;52.540;13.290;2024-01-15T05:48:07;2.55;;;1.90;;
6438;SDS011;3252;52.540;13.290;2024-01-15T05:50:10;3.45;;;1.85;;
6438;SDS011;3252;52.540;13.290;2024-01-15T05:52:12;3.88;;;1.90;;
6438;SDS011;3252;52.540;13.290;2024-01-15T05:54:13;3.08;;;2.00;;
6438;SDS011;3252;52.540;13.290;2024-01-15T05:56:17;3.33;;;1.70;;
6438;SDS011;3252;52.540;13.290;2024-01-15T05:58:19;2.78;;;1.90;;
6438;SDS011;3252;52.540;13.290;2024-01-15T06:00:20;3.13;;;1.70;;
6438;SDS011;3252;52.540;13.290;2024-01-15T06:02:22;3.65;;;2.13;;
6438;SDS011;3252;52.540;13.290;2024-01-15T06:04:24;3.83;;;2.15;;
6438;SDS011;3252;52.540;13.290;2024-01-15T06:06:27;2.55;;;1.83;;
6438;SDS011;3252;52.540;13.290;2024-01-15T06:08:29;3.30;;;2.17;;
6438;SDS011;3252;52.540;13.290;2024-01-15T06:10:31;3.40;;;1.98;;
6438;SDS011;3252;52.540;13.290;2024-01-15T06:12:35;4.85;;;2.00;;
6438;SDS011;3252;52.540;13.290;2024-01-15T06:14:37;2.85;;;1.98;;
6438;SDS011;3252;52.540;13.290;2024-01-15T06:16:39;6.03;;;2.63;;
6438;SDS011;3252;52.540;13.290;2024-01-15T06:18:41;6.03;;;2.70;;
6438;SDS011;3252;52.540;13.290;2024-01-15T06:20:42;5.47;;;2.45;;
6438;SDS011;3252;52.540;13.290;2024-01-15T06:22:44;5.78;;;2.80;;
6438;SDS011;3252;52.540;13.290;2024-01-15T06:24:46;8.38;;;2.97;;
6438;SDS011;3252;52.540;13.290;2024-01-15T06:26:48;7.03;;;2.85;;
6438;SDS011;3252;52.540;13.290;2024-01-15T06:28:52;6.45;;;2.75;;
6438;SDS011;3252;52.540;13.290;2024-01-15T06:30:54;5.60;;;2.60;;
6438;SDS011;3252;52.540;13.290;2024-01-15T06:32:55;5.28;;;2.75;;
6438;SDS011;3252;52.540;13.290;2024-01-15T06:34:57;6.10;;;2.97;;
6438;SDS011;3252;52.540;13.290;2024-01-15T06:36:59;6.68;;;2.83;;
6438;SDS011;3252;52.540;13.290;2024-01-15T06:39:02;6.35;;;2.88;;
6438;SDS011;3252;52.540;13.290;2024-01-15T06:41:03;6.10;;;2.90;;
6438;SDS011;3252;52.540;13.290;2024-01-15T06:43:05;6.38;;;3.00;;
6438;SDS011;3252;52.540;13.290;2024-01-15T06:45:09;8.93;;;2.60;;
6438;SDS011;3252;52.540;13.290;2024-01-15T06:47:10;6.57;;;3.00;;
6438;SDS011;3252;52.540;13.290;2024-01-15T06:49:12;5.45;;;2.55;;
6438;SDS011;3252;52.540;13.290;2024-01-15T06:51:15;6.90;;;3.00;;
6438;SDS011;3252;52.540;13.290;2024-01-15T06:53:16;5.32;;;2.60;;
6438;SDS011;3252;52.540;13.290;2024-01-15T06:55:18;6.90;;;2.95;;
6438;SDS011;3252;52.540;13.290;2024-01-15T06:57:19;7.40;;;2.92;;
6438;SDS011;3252;52.540;13.290;2024-01-15T06:59:21;7.90;;;2.90;;
6438;SDS011;3252;52.540;13.290;2024-01-15T07:01:26;4.75;;;2.55;;
6438;SDS011;3252;52.540;13.290;2024-01-15T07:03:28;6.80;;;3.15;;
6438;SDS011;3252;52.540;13.290;2024-01-15T07:05:30;6.10;;;2.60;;
6438;SDS011;3252;52.540;13.290;2024-01-15T07:07:33;7.00;;;2.92;;
6438;SDS011;3252;52.540;13.290;2024-01-15T07:09:35;6.80;;;2.45;;
6438;SDS011;3252;52.540;13.290;2024-01-15T07:11:37;4.75;;;2.50;;
6438;SDS011;3252;52.540;13.290;2024-01-15T07:13:39;7.07;;;2.33;;
6438;SDS011;3252;52.540;13.290;2024-01-15T07:15:41;5.30;;;2.55;;
6438;SDS011;3252;52.540;13.290;2024-01-15T07:17:45;5.25;;;2.63;;
6438;SDS011;3252;52.540;13.290;2024-01-15T07:19:47;7.85;;;2.28;;
6438;SDS011;3252;52.540;13.290;2024-01-15T07:21:49;4.40;;;2.30;;
6438;SDS011;3252;52.540;13.290;2024-01-15T07:23:51;7.68;;;2.83;;
6438;SDS011;3252;52.540;13.290;2024-01-15T07:25:53;4.65;;;2.20;;
6438;SDS011;3252;52.540;13.290;2024-01-15T07:27:55;5.72;;;2.53;;
6438;SDS011;3252;52.540;13.290;2024-01-15T07:29:57;4.03;;;2.30;;
6438;SDS011;3252;52.540;13.290;2024-01-15T07:31:59;4.35;;;2.53;;
6438;SDS011;3252;52.540;13.290;2024-01-15T07:34:03;5.43;;;2.67;;
6438;SDS011;3252;52.540;13.290;2024-01-15T07:36:06;5.53;;;2.40;;
6438;SDS011;3252;52.540;13.290;2024-01-15T07:38:08;4.63;;;2.08;;
6438;SDS011;3252;52.540;13.290;2024-01-15T07:40:12;4.30;;;2.08;;
6438;SDS011;3252;52.540;13.290;2024-01-15T07:42:14;7.22;;;2.60;;
6438;SDS011;3252;52.540;13.290;2024-01-15T07:44:16;4.13;;;2.28;;
6438;SDS011;3252;52.540;13.290;2024-01-15T07:46:18;6.38;;;2.28;;
6438;SDS011;3252;52.540;13.290;2024-01-15T07:48:20;4.57;;;2.33;;
6438;SDS011;3252;52.540;13.290;2024-01-15T07:50:24;5.57;;;2.00;;
6438;SDS011;3252;52.540;13.290;2024-01-15T07:52:26;5.03;;;2.30;;
6438;SDS011;3252;52.540;13.290;2024-01-15T07:54:28;3.88;;;1.88;;
6438;SDS011;3252;52.540;13.290;2024-01-15T07:56:29;3.55;;;2.00;;
6438;SDS011;3252;52.540;13.290;2024-01-15T07:58:33;3.80;;;1.98;;
6438;SDS011;3252;52.540;13.290;2024-01-15T08:00:35;4.85;;;2.28;;
6438;SDS011;3252;52.540;13.290;2024-01-15T08:02:37;3.58;;;2.13;;
6438;SDS011;3252;52.540;13.290;2024-01-15T08:04:39;2.90;;;1.90;;
6438;SDS011;3252;52.540;13.290;2024-01-15T08:06:44;3.67;;;2.33;;
6438;SDS011;3252;52.540;13.290;2024-01-15T08:08:45;4.22;;;2.00;;
6438;SDS011;3252;52.540;13.290;2024-01-15T08:10:47;6.18;;;2.40;;
6438;SDS011;3252;52.540;13.290;2024-01-15T08:12:49;1999.90;;;999.90;;
6438;SDS011;3252;52.540;13.290;2024-01-15T08:14:51;1999.90;;;999.90;;
6438;SDS011;3252;52.540;13.290;2024-01-15T08:16:54;1999.90;;;999.90;;
6438;SDS011;3252;52.540;13.290;2024-01-15T08:18:56;1581.68;;;965.78;;
6438;SDS011;3252;52.540;13.290;2024-01-15T08:20:59;1999.90;;;999.90;;
6438;SDS011;3252;52.540;13.290;2024-01-15T08:23:03;1999.90;;;999.90;;
6438;SDS011;3252;52.540;13.290;2024-01-15T08:25:05;627.90;;;418.67;;
6438;SDS011;3252;52.540;13.290;2024-01-15T08:27:09;184.95;;;93.65;;
6438;SDS011;3252;52.540;13.290;2024-01-15T08:29:12;17.17;;;7.00;;
6438;SDS011;3252;52.540;13.290;2024-01-15T08:31:15;8.23;;;3.00;;
6438;SDS011;3252;52.540;13.290;2024-01-15T08:33:16;5.70;;;2.28;;
6438;SDS011;3252;52.540;13.290;2024-01-15T08:35:19;14.80;;;4.60;;
6438;SDS011;3252;52.540;13.290;2024-01-15T08:37:23;8.02;;;2.40;;
6438;SDS011;3252;52.540;13.290;2024-01-15T08:39:26;6.33;;;2.20;;
6438;SDS011;3252;52.540;13.290;2024-01-15T08:41:30;7.17;;;2.30;;
6438;SDS011;3252;52.540;13.290;2024-01-15T08:43:33;6.77;;;2.07;;
6438;SDS011;3252;52.540;13.290;2024-01-15T08:45:36;135.60;;;78.57;;
6438;SDS011;3252;52.540;13.290;2024-01-15T08:47:39;483.60;;;325.43;;
6438;SDS011;3252;52.540;13.290;2024-01-15T08:49:42;323.40;;;167.40;;
6438;SDS011;3252;52.540;13.290;2024-01-15T08:51:46;86.73;;;30.63;;
6438;SDS011;3252;52.540;13.290;2024-01-15T08:53:49;29.33;;;8.00;;
6438;SDS011;3252;52.540;13.290;2024-01-15T08:55:53;16.33;;;4.53;;
6438;SDS011;3252;52.540;13.290;2024-01-15T08:57:56;9.67;;;3.20;;
6438;SDS011;3252;52.540;13.290;2024-01-15T08:59:59;6.47;;;2.37;;
6438;SDS011;3252;52.540;13.290;2024-01-15T09:02:02;7.32;;;2.25;;
6438;SDS011;3252;52.540;13.290;2024-01-15T09:04:05;6.83;;;2.43;;
6438;SDS011;3252;52.540;13.290;2024-01-15T09:06:08;5.03;;;1.73;;
6438;SDS011;3252;52.540;13.290;2024-01-15T09:08:11;4.67;;;2.13;;
6438;SDS011;3252;52.540;13.290;2024-01-15T09:10:14;4.27;;;1.80;;
6438;SDS011;3252;52.540;13.290;2024-01-15T09:12:18;4.17;;;1.57;;
6438;SDS011;3252;52.540;13.290;2024-01-15T09:14:22;6.33;;;2.20;;
6438;SDS011;3252;52.540;13.290;2024-01-15T09:16:27;6.37;;;2.00;;
6438;SDS011;3252;52.540;13.290;2024-01-15T09:18:29;5.97;;;2.20;;
6438;SDS011;3252;52.540;13.290;2024-01-15T09:20:32;3.70;;;1.93;;
6438;SDS011;3252;52.540;13.290;2024-01-15T09:22:34;4.50;;;1.80;;
6438;SDS011;3252;52.540;13.290;2024-01-15T09:24:36;4.30;;;1.77;;
6438;SDS011;3252;52.540;13.290;2024-01-15T09:26:38;4.70;;;1.83;;
6438;SDS011;3252;52.540;13.290;2024-01-15T09:28:42;4.75;;;2.00;;
6438;SDS011;3252;52.540;13.290;2024-01-15T09:30:44;3.55;;;1.90;;
6438;SDS011;3252;52.540;13.290;2024-01-15T09:32:45;3.28;;;1.58;;
6438;SDS011;3252;52.540;13.290;2024-01-15T09:34:47;4.33;;;1.50;;
6438;SDS011;3252;52.540;13.290;2024-01-15T09:36:50;4.20;;;1.70;;
6438;SDS011;3252;52.540;13.290;2024-01-15T09:38:52;3.35;;;1.55;;
6438;SDS011;3252;52.540;13.290;2024-01-15T09:40:54;3.93;;;1.50;;
6438;SDS011;3252;52.540;13.290;2024-01-15T09:42:56;4.15;;;1.60;;
6438;SDS011;3252;52.540;13.290;2024-01-15T09:44:59;3.77;;;1.73;;
6438;SDS011;3252;52.540;13.290;2024-01-15T09:47:04;2.95;;;1.65;;
6438;SDS011;3252;52.540;13.290;2024-01-15T09:49:07;3.05;;;1.70;;
6438;SDS011;3252;52.540;13.290;2024-01-15T09:51:09;4.63;;;1.90;;
6438;SDS011;3252;52.540;13.290;2024-01-15T09:53:11;2.63;;;1.33;;
6438;SDS011;3252;52.540;13.290;2024-01-15T09:55:15;4.43;;;1.50;;
6438;SDS011;3252;52.540;13.290;2024-01-15T09:57:18;3.47;;;1.70;;
6438;SDS011;3252;52.540;13.290;2024-01-15T09:59:21;1999.90;;;942.83;;
6438;SDS011;3252;52.540;13.290;2024-01-15T10:01:27;1999.90;;;999.90;;
6438;SDS011;3252;52.540;13.290;2024-01-15T10:03:29;1999.90;;;999.90;;
6438;SDS011;3252;52.540;13.290;2024-01-15T10:05:31;1999.90;;;999.90;;
6438;SDS011;3252;52.540;13.290;2024-01-15T10:07:33;1999.90;;;999.90;;
6438;SDS011;3252;52.540;13.290;2024-01-15T10:09:36;1999.90;;;999.90;;
6438;SDS011;3252;52.540;13.290;2024-01-15T10:11:38;1672.87;;;972.93;;
6438;SDS011;3252;52.540;13.290;2024-01-15T10:13:41;1438.50;;;875.45;;
6438;SDS011;3252;52.540;13.290;2024-01-15T10:15:45;1440.73;;;854.80;;
6438;SDS011;3252;52.540;13.290;2024-01-15T10:17:49;1352.53;;;818.63;;
6438;SDS011;3252;52.540;13.290;2024-01-15T10:19:52;1256.78;;;766.53;;
6438;SDS011;3252;52.540;13.290;2024-01-15T10:21:53;1112.57;;;678.83;;
6438;SDS011;3252;52.540;13.290;2024-01-15T10:23:55;958.47;;;566.85;;
6438;SDS011;3252;52.540;13.290;2024-01-15T10:25:57;861.72;;;495.67;;
6438;SDS011;3252;52.540;13.290;2024-01-15T10:28:00;1999.90;;;999.90;;
6438;SDS011;3252;52.540;13.290;2024-01-15T10:30:03;1999.90;;;999.90;;
6438;SDS011;3252;52.540;13.290;2024-01-15T10:32:06;1739.90;;;988.33;;
6438;SDS011;3252;52.540;13.290;2024-01-15T10:34:11;1529.40;;;910.60;;
6438;SDS011;3252;52.540;13.290;2024-01-15T10:36:15;1462.70;;;875.00;;
6438;SDS011;3252;52.540;13.290;2024-01-15T10:38:18;1999.90;;;999.90;;
6438;SDS011;3252;52.540;13.290;2024-01-15T10:40:22;607.10;;;370.10;;
6438;SDS011;3252;52.540;13.290;2024-01-15T10:42:24;348.20;;;170.67;;
6438;SDS011;3252;52.540;13.290;2024-01-15T10:44:26;155.90;;;68.00;;
6438;SDS011;3252;52.540;13.290;2024-01-15T10:46:28;71.25;;;27.83;;
6438;SDS011;3252;52.540;13.290;2024-01-15T10:48:31;101.50;;;34.92;;
6438;SDS011;3252;52.540;13.290;2024-01-15T10:50:37;45.28;;;13.32;;
6438;SDS011;3252;52.540;13.290;2024-01-15T10:52:40;22.45;;;5.47;;
6438;SDS011;3252;52.540;13.290;2024-01-15T10:54:42;9.93;;;3.00;;
6438;SDS011;3252;52.540;13.290;2024-01-15T10:56:45;6.60;;;2.28;;
6438;SDS011;3252;52.540;13.290;2024-01-15T10:58:47;6.25;;;2.05;;
6438;SDS011;3252;52.540;13.290;2024-01-15T11:00:51;5.22;;;1.90;;
6438;SDS011;3252;52.540;13.290;2024-01-15T11:02:53;5.10;;;1.70;;
6438;SDS011;3252;52.540;13.290;2024-01-15T11:04:55;2.78;;;1.10;;
6438;SDS011;3252;52.540;13.290;2024-01-15T11:06:59;2.92;;;1.40;;
6438;SDS011;3252;52.540;13.290;2024-01-15T11:09:03;4.28;;;1.60;;
6438;SDS011;3252;52.540;13.290;2024-01-15T11:11:05;5.80;;;1.70;;
6438;SDS011;3252;52.540;13.290;2024-01-15T11:13:10;2.97;;;1.17;;
6438;SDS011;3252;52.540;13.290;2024-01-15T11:15:17;5.00;;;1.60;;
6438;SDS011;3252;52.540;13.290;2024-01-15T11:17:21;2.47;;;1.20;;
6438;SDS011;3252;52.540;13.290;2024-01-15T11:19:24;4.28;;;1.40;;
6438;SDS011;3252;52.540;13.290;2024-01-15T11:21:25;2.88;;;1.30;;
6438;SDS011;3252;52.540;13.290;2024-01-15T11:23:43;2.95;;;1.17;;
6438;SDS011;3252;52.540;13.290;2024-01-15T11:25:47;2.47;;;1.10;;
6438;SDS011;3252;52.540;13.290;2024-01-15T11:27:49;1957.13;;;999.90;;
6438;SDS011;3252;52.540;13.290;2024-01-15T11:30:02;1999.90;;;999.90;;
6438;SDS011;3252;52.540;13.290;2024-01-15T11:32:06;954.92;;;735.58;;
6438;SDS011;3252;52.540;13.290;2024-01-15T11:34:08;809.30;;;626.58;;
6438;SDS011;3252;52.540;13.290;2024-01-15T11:36:12;760.00;;;574.78;;
6438;SDS011;3252;52.540;13.290;2024-01-15T11:38:24;685.55;;;499.77;;
6438;SDS011;3252;52.540;13.290;2024-01-15T11:40:39;538.22;;;350.17;;
6438;SDS011;3252;52.540;13.290;2024-01-15T11:42:44;420.00;;;225.80;;
6438;SDS011;3252;52.540;13.290;2024-01-15T11:44:47;272.17;;;125.05;;
6438;SDS011;3252;52.540;13.290;2024-01-15T11:46:59;177.75;;;68.82;;
6438;SDS011;3252;52.540;13.290;2024-01-15T11:49:03;71.93;;;24.95;;
6438;SDS011;3252;52.540;13.290;2024-01-15T11:51:06;38.33;;;10.90;;
6438;SDS011;3252;52.540;13.290;2024-01-15T11:53:13;15.80;;;4.82;;
6438;SDS011;3252;52.540;13.290;2024-01-15T11:55:21;11.48;;;2.92;;
6438;SDS011;3252;52.540;13.290;2024-01-15T11:57:32;4.72;;;1.60;;
6438;SDS011;3252;52.540;13.290;2024-01-15T11:59:41;6.97;;;1.60;;
6438;SDS011;3252;52.540;13.290;2024-01-15T12:01:44;4.00;;;1.50;;
6438;SDS011;3252;52.540;13.290;2024-01-15T12:03:46;2.33;;;1.10;;
6438;SDS011;3252;52.540;13.290;2024-01-15T12:05:49;4.32;;;1.13;;
6438;SDS011;3252;52.540;13.290;2024-01-15T12:07:51;2.50;;;1.15;;
6438;SDS011;3252;52.540;13.290;2024-01-15T12:09:53;2.67;;;0.93;;
6438;SDS011;3252;52.540;13.290;2024-01-15T12:11:55;2.33;;;1.13;;
6438;SDS011;3252;52.540;13.290;2024-01-15T12:14:07;2.90;;;1.23;;
6438;SDS011;3252;52.540;13.290;2024-01-15T12:16:09;1.95;;;1.00;;
6438;SDS011;3252;52.540;13.290;2024-01-15T12:18:12;4.00;;;0.93;;
6438;SDS011;3252;52.540;13.290;2024-01-15T12:20:17;2.58;;;1.10;;
6438;SDS011;3252;52.540;13.290;2024-01-15T12:22:18;2.47;;;0.98;;
6438;SDS011;3252;52.540;13.290;2024-01-15T12:24:20;1.48;;;1.00;;